createdAt,value
2022-07-29T00:02:00.184Z,98131.97
2022-07-29T00:04:30.001Z,98128.00
2022-07-29T00:06:59.907Z,98138.06
2022-07-29T00:09:29.649Z,98133.84
2022-07-29T00:12:04.456Z,98124.06
2022-07-29T00:14:34.249Z,98127.84
2022-07-29T00:17:03.995Z,98122.63
2022-07-29T00:19:35.338Z,98119.97
2022-07-29T00:22:05.282Z,98114.63
2022-07-29T00:24:35.054Z,98108.97
2022-07-29T00:27:08.012Z,98103.53
2022-07-29T00:29:37.771Z,98109.75
2022-07-29T00:32:07.884Z,98107.06
2022-07-29T00:34:50.096Z,98105.06
2022-07-29T00:37:19.858Z,98101.97
2022-07-29T00:39:49.548Z,98108.97
2022-07-29T00:42:22.084Z,98109.56
2022-07-29T00:44:51.815Z,98100.13
2022-07-29T00:47:21.506Z,98104.75
2022-07-29T00:49:51.417Z,98101.22
2022-07-29T00:52:21.167Z,98109.66
2022-07-29T00:54:50.901Z,98103.00
2022-07-29T00:57:24.206Z,98102.97
2022-07-29T00:59:53.963Z,98102.28
2022-07-29T01:02:23.675Z,98099.06
2022-07-29T01:04:53.861Z,98092.28
2022-07-29T01:07:23.681Z,98097.72
2022-07-29T01:09:54.671Z,98092.84
2022-07-29T01:12:30.155Z,98090.50
2022-07-29T01:15:00.345Z,98090.38
2022-07-29T01:17:32.656Z,98088.28
2022-07-29T01:20:14.676Z,98089.19
2022-07-29T01:22:59.556Z,98092.63
2022-07-29T01:25:53.199Z,98082.53
2022-07-29T01:28:57.077Z,98091.44
2022-07-29T01:31:36.593Z,98071.91
2022-07-29T01:34:13.083Z,98075.91
2022-07-29T01:36:47.820Z,98077.75
2022-07-29T01:39:23.561Z,98073.91
2022-07-29T01:41:58.519Z,98078.81
2022-07-29T01:44:36.764Z,98075.28
2022-07-29T01:47:14.482Z,98072.31
2022-07-29T01:49:51.087Z,98068.97
2022-07-29T01:52:27.462Z,98073.09
2022-07-29T01:55:01.005Z,98070.78
2022-07-29T01:57:35.025Z,98070.16
2022-07-29T02:00:09.412Z,98073.47
2022-07-29T02:02:41.757Z,98079.59
2022-07-29T02:05:14.865Z,98071.25
2022-07-29T02:07:45.906Z,98069.78
2022-07-29T02:10:17.025Z,98077.09
2022-07-29T02:12:50.901Z,98068.50
2022-07-29T02:15:24.023Z,98076.06
2022-07-29T02:17:59.032Z,98070.38
2022-07-29T02:20:30.257Z,98070.44
2022-07-29T02:23:02.549Z,98068.66
2022-07-29T02:25:37.491Z,98070.34
2022-07-29T02:28:10.075Z,98060.75
2022-07-29T02:30:46.779Z,98073.53
2022-07-29T02:33:19.673Z,98070.06
2022-07-29T02:35:51.357Z,98073.72
2022-07-29T02:38:34.931Z,98066.38
2022-07-29T02:41:07.170Z,98065.09
2022-07-29T02:43:38.983Z,98059.81
2022-07-29T02:46:28.602Z,98073.91
2022-07-29T02:49:03.299Z,98066.13
2022-07-29T02:51:43.871Z,98065.50
2022-07-29T02:54:21.585Z,98059.72
2022-07-29T02:56:54.817Z,98055.22
2022-07-29T02:59:28.798Z,98065.50
2022-07-29T03:02:04.027Z,98064.13
2022-07-29T03:04:36.377Z,98070.28
2022-07-29T03:07:07.537Z,98072.88
2022-07-29T03:09:38.124Z,98068.03
2022-07-29T03:12:09.139Z,98067.50
2022-07-29T03:14:40.994Z,98063.53
2022-07-29T03:17:13.872Z,98066.84
2022-07-29T03:19:43.861Z,98071.25
2022-07-29T03:22:13.672Z,98075.91
2022-07-29T03:24:43.393Z,98073.31
2022-07-29T03:27:13.067Z,98076.06
2022-07-29T03:29:49.619Z,98075.19
2022-07-29T03:32:23.816Z,98071.25
2022-07-29T03:34:53.832Z,98071.91
2022-07-29T03:37:23.740Z,98070.88
2022-07-29T03:39:54.905Z,98071.63
2022-07-29T03:42:32.411Z,98068.94
2022-07-29T03:45:09.213Z,98064.88
2022-07-29T03:47:50.476Z,98073.72
2022-07-29T03:50:23.154Z,98065.97
2022-07-29T03:52:53.483Z,98071.31
2022-07-29T03:55:23.391Z,98065.97
2022-07-29T03:57:54.487Z,98079.72
2022-07-29T04:00:24.466Z,98078.56
2022-07-29T04:02:57.027Z,98081.09
2022-07-29T04:05:26.768Z,98086.78
2022-07-29T04:07:56.527Z,98080.63
2022-07-29T04:10:31.738Z,98084.47
2022-07-29T04:13:02.081Z,98084.19
2022-07-29T04:15:32.088Z,98090.25
2022-07-29T04:18:04.524Z,98090.56
2022-07-29T04:20:34.355Z,98090.31
2022-07-29T04:23:04.083Z,98089.38
2022-07-29T04:25:33.925Z,98086.00
2022-07-29T04:28:06.700Z,98091.16
2022-07-29T04:30:37.410Z,98088.81
2022-07-29T04:33:11.319Z,98094.38
2022-07-29T04:35:47.196Z,98099.44
2022-07-29T04:38:20.355Z,98098.81
2022-07-29T04:40:50.100Z,98088.75
2022-07-29T04:43:23.243Z,98098.03
2022-07-29T04:45:53.281Z,98100.34
2022-07-29T04:48:28.791Z,98093.94
2022-07-29T04:50:58.849Z,98088.75
2022-07-29T04:53:29.141Z,98092.66
2022-07-29T04:55:59.086Z,98092.41
2022-07-29T04:58:28.806Z,98087.81
2022-07-29T05:00:58.594Z,98092.06
2022-07-29T05:03:30.919Z,98084.13
2022-07-29T05:06:00.647Z,98086.47
2022-07-29T05:08:30.625Z,98084.63
2022-07-29T05:11:11.234Z,98100.56
2022-07-29T05:13:45.449Z,98100.22
2022-07-29T05:16:16.927Z,98100.34
2022-07-29T05:18:49.412Z,98096.34
2022-07-29T05:21:19.178Z,98097.28
2022-07-29T05:23:48.831Z,98098.75
2022-07-29T05:26:18.613Z,98104.75
2022-07-29T05:28:48.376Z,98094.84
2022-07-29T05:31:18.703Z,98096.91
2022-07-29T05:33:51.130Z,98101.16
2022-07-29T05:36:20.892Z,98101.66
2022-07-29T05:38:51.975Z,98098.97
2022-07-29T05:41:22.243Z,98101.00
2022-07-29T05:43:51.978Z,98104.88
2022-07-29T05:46:21.798Z,98109.56
2022-07-29T05:48:54.268Z,98108.88
2022-07-29T05:51:24.049Z,98104.75
2022-07-29T05:53:53.855Z,98114.16
2022-07-29T05:56:24.501Z,98113.09
2022-07-29T05:58:54.369Z,98119.19
2022-07-29T06:01:24.359Z,98110.91
2022-07-29T06:03:56.739Z,98113.53
2022-07-29T06:06:26.511Z,98122.59
2022-07-29T06:08:56.237Z,98122.66
2022-07-29T06:11:25.951Z,98132.75
2022-07-29T06:13:55.726Z,98129.53
2022-07-29T06:16:28.910Z,98123.53
2022-07-29T06:19:02.703Z,98133.50
2022-07-29T06:21:32.480Z,98132.13
2022-07-29T06:24:02.377Z,98131.59
2022-07-29T06:26:35.238Z,98133.81
2022-07-29T06:29:07.513Z,98135.16
2022-07-29T06:31:37.639Z,98144.94
2022-07-29T06:34:10.250Z,98141.13
2022-07-29T06:36:41.221Z,98140.56
2022-07-29T06:39:12.403Z,98151.28
2022-07-29T06:41:42.127Z,98150.78
2022-07-29T06:44:11.813Z,98143.72
2022-07-29T06:46:41.589Z,98149.47
2022-07-29T06:49:15.151Z,98138.72
2022-07-29T06:51:44.923Z,98144.16
2022-07-29T06:54:14.930Z,98144.50
2022-07-29T06:56:44.957Z,98146.81
2022-07-29T06:59:16.251Z,98148.56
2022-07-29T07:01:47.184Z,98149.00
2022-07-29T07:04:20.048Z,98157.06
2022-07-29T07:06:50.086Z,98158.28
2022-07-29T07:09:19.834Z,98157.41
2022-07-29T07:11:50.252Z,98158.16
2022-07-29T07:14:20.776Z,98159.16
2022-07-29T07:16:51.021Z,98165.63
2022-07-29T07:19:25.518Z,98153.41
2022-07-29T07:21:56.208Z,98158.44
2022-07-29T07:24:26.451Z,98154.09
2022-07-29T07:26:56.208Z,98156.88
2022-07-29T07:29:25.941Z,98158.25
2022-07-29T07:32:00.508Z,98159.69
2022-07-29T07:34:33.925Z,98156.47
2022-07-29T07:37:03.660Z,98167.66
2022-07-29T07:39:33.491Z,98166.50
2022-07-29T07:42:03.416Z,98171.84
2022-07-29T07:44:39.042Z,98167.44
2022-07-29T07:47:16.764Z,98168.56
2022-07-29T07:49:50.799Z,98168.44
2022-07-29T07:52:22.331Z,98159.59
2022-07-29T07:54:52.591Z,98161.19
2022-07-29T07:57:22.401Z,98155.25
2022-07-29T07:59:52.117Z,98159.25
2022-07-29T08:02:22.039Z,98160.44
2022-07-29T08:04:54.500Z,98171.19
2022-07-29T08:07:24.254Z,98162.00
2022-07-29T08:09:54.037Z,98165.28
2022-07-29T08:12:23.782Z,98166.38
2022-07-29T08:14:53.710Z,98171.47
2022-07-29T08:17:23.554Z,98167.00
2022-07-29T08:19:55.877Z,98169.03
2022-07-29T08:22:26.285Z,98165.88
2022-07-29T08:24:58.790Z,98166.84
2022-07-29T08:27:45.504Z,98165.09
2022-07-29T08:30:15.447Z,98168.34
2022-07-29T08:32:54.469Z,98177.59
2022-07-29T08:35:32.088Z,98170.72
2022-07-29T08:38:04.688Z,98176.22
2022-07-29T08:40:34.727Z,98170.47
2022-07-29T08:43:09.799Z,98163.50
2022-07-29T08:45:48.613Z,98167.41
2022-07-29T08:48:20.239Z,98157.28
2022-07-29T08:50:56.614Z,98168.81
2022-07-29T08:53:29.873Z,98165.50
2022-07-29T08:55:59.944Z,98159.44
2022-07-29T08:58:30.811Z,98163.56
2022-07-29T09:01:01.555Z,98158.88
2022-07-29T09:03:35.689Z,98163.44
2022-07-29T09:06:08.632Z,98160.69
2022-07-29T09:08:38.508Z,98158.88
2022-07-29T09:11:08.628Z,98164.97
2022-07-29T09:13:38.467Z,98162.88
2022-07-29T09:16:09.717Z,98165.75
2022-07-29T09:18:41.535Z,98168.50
2022-07-29T09:21:28.288Z,98169.44
2022-07-29T09:24:05.749Z,98160.41
2022-07-29T09:26:37.231Z,98162.84
2022-07-29T09:29:13.713Z,98160.31
2022-07-29T09:31:45.541Z,98158.13
2022-07-29T09:34:17.106Z,98151.28
2022-07-29T09:36:51.444Z,98158.53
2022-07-29T09:39:31.429Z,98159.28
2022-07-29T09:42:03.323Z,98156.56
2022-07-29T09:44:46.350Z,98150.94
2022-07-29T09:47:16.654Z,98152.91
2022-07-29T09:49:59.275Z,98154.94
2022-07-29T09:52:33.191Z,98146.72
2022-07-29T09:55:10.077Z,98143.84
2022-07-29T09:57:44.294Z,98145.44
2022-07-29T10:00:16.456Z,98139.97
2022-07-29T10:02:47.802Z,98147.00
2022-07-29T10:05:23.165Z,98138.44
2022-07-29T10:07:57.495Z,98136.78
2022-07-29T10:10:29.809Z,98141.38
2022-07-29T10:13:07.199Z,98138.38
2022-07-29T10:15:44.300Z,98139.84
2022-07-29T10:18:15.699Z,98138.22
2022-07-29T10:20:45.671Z,98132.44
2022-07-29T10:23:18.889Z,98129.16
2022-07-29T10:25:49.845Z,98131.38
2022-07-29T10:28:19.749Z,98132.69
2022-07-29T10:30:50.719Z,98123.91
2022-07-29T10:33:34.801Z,98121.53
2022-07-29T10:36:14.362Z,98123.44
2022-07-29T10:38:59.631Z,98125.69
2022-07-29T10:41:47.824Z,98130.56
2022-07-29T10:44:23.013Z,98129.34
2022-07-29T10:46:55.245Z,98115.84
2022-07-29T10:49:27.447Z,98118.56
2022-07-29T10:52:06.544Z,98111.91
2022-07-29T10:54:51.354Z,98117.25
2022-07-29T10:57:53.490Z,98128.50
2022-07-29T11:00:32.245Z,98132.25
2022-07-29T11:03:04.701Z,98125.53
2022-07-29T11:05:59.901Z,98124.13
2022-07-29T11:08:31.885Z,98122.59
2022-07-29T11:11:31.772Z,98139.78
2022-07-29T11:14:04.758Z,98137.06
2022-07-29T11:17:09.088Z,98139.38
2022-07-29T11:19:45.713Z,98136.59
2022-07-29T11:22:37.056Z,98132.28
2022-07-29T11:25:19.148Z,98151.66
2022-07-29T11:28:22.967Z,98157.97
2022-07-29T11:30:58.191Z,98166.53
2022-07-29T11:33:37.513Z,98162.50
2022-07-29T11:36:28.120Z,98159.44
2022-07-29T11:39:36.439Z,98162.63
2022-07-29T11:42:37.421Z,98170.44
2022-07-29T11:45:44.845Z,98166.78
2022-07-29T11:48:29.785Z,98153.47
2022-07-29T11:50:58.788Z,98156.28
2022-07-29T11:53:32.713Z,98160.50
2022-07-29T11:56:03.957Z,98161.41
2022-07-29T11:58:34.102Z,98162.97
2022-07-29T12:01:05.629Z,98165.69
2022-07-29T12:03:38.254Z,98163.50
2022-07-29T12:06:18.179Z,98171.56
2022-07-29T12:08:50.689Z,98159.41
2022-07-29T12:11:22.671Z,98159.84
2022-07-29T12:13:53.692Z,98176.28
2022-07-29T12:16:25.304Z,98162.50
2022-07-29T12:19:05.291Z,98164.53
2022-07-29T12:21:59.490Z,98167.19
2022-07-29T12:24:30.015Z,98159.56
2022-07-29T12:27:01.010Z,98157.63
2022-07-29T12:29:34.745Z,98155.38
2022-07-29T12:32:14.286Z,98155.00
2022-07-29T12:34:47.643Z,98155.00
2022-07-29T12:37:17.570Z,98147.91
2022-07-29T12:39:47.534Z,98153.06
2022-07-29T12:42:19.326Z,98152.75
2022-07-29T12:44:51.116Z,98151.38
2022-07-29T12:47:22.559Z,98147.84
2022-07-29T12:50:12.557Z,98144.19
2022-07-29T12:52:42.331Z,98147.25
2022-07-29T12:55:12.103Z,98148.97
2022-07-29T12:57:51.784Z,98149.19
2022-07-29T13:00:26.502Z,98156.09
2022-07-29T13:03:00.120Z,98152.91
2022-07-29T13:05:49.563Z,98155.88
2022-07-29T13:08:22.326Z,98166.66
2022-07-29T13:10:52.587Z,98167.84
2022-07-29T13:13:22.301Z,98165.59
2022-07-29T13:16:09.904Z,98172.13
2022-07-29T13:18:39.964Z,98174.78
2022-07-29T13:21:21.393Z,98176.50
2022-07-29T13:23:51.082Z,98167.53
2022-07-29T13:26:20.847Z,98174.88
2022-07-29T13:28:50.845Z,98177.28
2022-07-29T13:31:20.567Z,98177.38
2022-07-29T13:33:50.258Z,98183.00
2022-07-29T13:36:22.581Z,98191.19
2022-07-29T13:38:52.301Z,98189.16
2022-07-29T13:41:22.083Z,98194.53
2022-07-29T13:43:51.753Z,98186.03
2022-07-29T13:46:21.443Z,98187.69
2022-07-29T13:48:51.801Z,98182.50
2022-07-29T13:51:24.177Z,98187.69
2022-07-29T13:53:53.832Z,98184.69
2022-07-29T13:56:23.621Z,98167.28
2022-07-29T13:58:53.373Z,98149.59
2022-07-29T14:01:23.188Z,98136.34
2022-07-29T14:03:53.079Z,98140.16
2022-07-29T14:06:25.386Z,98140.28
2022-07-29T14:08:55.237Z,98142.72
2022-07-29T14:11:25.028Z,98144.69
2022-07-29T14:13:54.803Z,98144.25
2022-07-29T14:16:24.705Z,98137.94
2022-07-29T14:18:54.549Z,98134.09
2022-07-29T14:21:26.985Z,98129.22
2022-07-29T14:23:56.732Z,98131.59
2022-07-29T14:26:26.633Z,98129.09
2022-07-29T14:28:57.224Z,98138.69
2022-07-29T14:31:27.153Z,98138.34
2022-07-29T14:33:59.942Z,98132.31
2022-07-29T14:36:35.087Z,98133.81
2022-07-29T14:39:05.129Z,98138.47
2022-07-29T14:41:34.839Z,98143.00
2022-07-29T14:44:04.511Z,98141.81
2022-07-29T14:46:34.733Z,98150.91
2022-07-29T14:49:04.658Z,98147.97
2022-07-29T14:51:39.320Z,98151.44
2022-07-29T14:54:10.177Z,98147.41
2022-07-29T14:56:46.501Z,98161.66
2022-07-29T14:59:16.752Z,98155.84
2022-07-29T15:01:46.779Z,98165.38
2022-07-29T15:04:16.435Z,98162.94
2022-07-29T15:06:48.799Z,98143.72
2022-07-29T15:09:19.066Z,98151.59
2022-07-29T15:11:48.791Z,98149.00
2022-07-29T15:14:18.467Z,98169.78
2022-07-29T15:16:48.428Z,98157.44
2022-07-29T15:19:18.328Z,98170.91
2022-07-29T15:21:50.617Z,98161.31
2022-07-29T15:24:21.112Z,98162.69
2022-07-29T15:26:51.459Z,98162.50
2022-07-29T15:29:21.216Z,98163.53
2022-07-29T15:31:50.974Z,98160.59
2022-07-29T15:34:21.766Z,98167.22
2022-07-29T15:36:54.426Z,98162.00
2022-07-29T15:39:25.332Z,98154.44
2022-07-29T15:41:55.166Z,98164.47
2022-07-29T15:44:25.084Z,98160.69
2022-07-29T15:47:04.183Z,98164.81
2022-07-29T15:49:47.525Z,98154.19
2022-07-29T15:52:25.344Z,98162.09
2022-07-29T15:54:57.094Z,98162.09
2022-07-29T15:57:27.634Z,98163.22
2022-07-29T15:59:57.386Z,98157.22
2022-07-29T16:02:27.151Z,98152.50
2022-07-29T16:04:56.908Z,98158.72
2022-07-29T16:07:31.772Z,98158.56
2022-07-29T16:10:02.571Z,98163.19
2022-07-29T16:12:32.450Z,98163.50
2022-07-29T16:15:06.184Z,98162.78
2022-07-29T16:17:39.158Z,98163.97
2022-07-29T16:20:10.558Z,98160.22
2022-07-29T16:22:46.152Z,98162.72
2022-07-29T16:25:15.865Z,98159.66
2022-07-29T16:27:45.680Z,98155.94
2022-07-29T16:30:15.811Z,98167.09
2022-07-29T16:32:45.492Z,98161.38
2022-07-29T16:35:15.270Z,98163.97
2022-07-29T16:37:47.677Z,98162.09
2022-07-29T16:40:17.568Z,98159.06
2022-07-29T16:42:47.884Z,98155.50
2022-07-29T16:45:21.414Z,98152.56
2022-07-29T16:47:51.377Z,98158.13
2022-07-29T16:50:22.441Z,98161.25
2022-07-29T16:52:55.011Z,98162.19
2022-07-29T16:55:25.166Z,98162.94
2022-07-29T16:57:55.525Z,98162.28
2022-07-29T17:00:25.482Z,98162.13
2022-07-29T17:02:55.262Z,98168.03
2022-07-29T17:05:25.155Z,98165.69
2022-07-29T17:07:58.601Z,98169.28
2022-07-29T17:10:30.071Z,98175.47
2022-07-29T17:12:59.859Z,98170.47
2022-07-29T17:15:29.738Z,98167.88
2022-07-29T17:18:00.892Z,98175.19
2022-07-29T17:20:33.236Z,98169.88
2022-07-29T17:23:05.679Z,98177.03
2022-07-29T17:25:35.503Z,98176.22
2022-07-29T17:28:05.215Z,98178.03
2022-07-29T17:30:34.961Z,98179.94
2022-07-29T17:33:04.765Z,98187.19
2022-07-29T17:35:46.941Z,98178.50
2022-07-29T17:38:19.330Z,98176.78
2022-07-29T17:40:49.075Z,98184.09
2022-07-29T17:43:18.830Z,98183.91
2022-07-29T17:45:50.603Z,98189.38
2022-07-29T17:48:20.873Z,98181.63
2022-07-29T17:50:51.676Z,98185.97
2022-07-29T17:53:24.031Z,98188.44
2022-07-29T17:55:53.875Z,98184.16
2022-07-29T17:58:23.612Z,98187.34
2022-07-29T18:00:53.669Z,98189.81
2022-07-29T18:03:23.472Z,98188.38
2022-07-29T18:05:53.683Z,98191.19
2022-07-29T18:08:26.116Z,98202.03
2022-07-29T18:10:56.268Z,98190.88
2022-07-29T18:13:26.563Z,98204.50
2022-07-29T18:16:00.050Z,98208.69
2022-07-29T18:18:30.407Z,98202.31
2022-07-29T18:21:00.353Z,98201.88
2022-07-29T18:23:32.827Z,98207.88
2022-07-29T18:26:02.571Z,98198.75
2022-07-29T18:28:32.895Z,98199.34
2022-07-29T18:31:02.816Z,98201.50
2022-07-29T18:33:32.839Z,98197.75
2022-07-29T18:36:07.642Z,98201.78
2022-07-29T18:38:43.939Z,98198.63
2022-07-29T18:41:13.671Z,98196.28
2022-07-29T18:43:43.347Z,98204.91
2022-07-29T18:46:13.163Z,98197.78
2022-07-29T18:48:43.945Z,98199.78
2022-07-29T18:51:13.692Z,98202.25
2022-07-29T18:53:46.026Z,98199.16
2022-07-29T18:56:15.713Z,98205.28
2022-07-29T18:58:45.411Z,98203.28
2022-07-29T19:01:16.803Z,98201.25
2022-07-29T19:03:46.853Z,98202.94
2022-07-29T19:06:16.736Z,98208.94
2022-07-29T19:08:49.071Z,98213.94
2022-07-29T19:11:18.755Z,98215.94
2022-07-29T19:13:48.524Z,98216.84
2022-07-29T19:16:18.792Z,98215.22
2022-07-29T19:18:49.600Z,98216.28
2022-07-29T19:21:19.393Z,98231.22
2022-07-29T19:24:05.771Z,98231.69
2022-07-29T19:26:42.214Z,98235.81
2022-07-29T19:29:11.898Z,98233.94
2022-07-29T19:31:41.714Z,98244.47
2022-07-29T19:34:11.619Z,98249.72
2022-07-29T19:36:41.971Z,98250.63
2022-07-29T19:39:15.469Z,98253.84
2022-07-29T19:41:45.247Z,98255.41
2022-07-29T19:44:15.662Z,98258.28
2022-07-29T19:46:45.820Z,98252.31
2022-07-29T19:49:15.776Z,98262.81
2022-07-29T19:51:45.520Z,98256.91
2022-07-29T19:54:18.425Z,98262.69
2022-07-29T19:56:48.123Z,98264.91
2022-07-29T19:59:17.871Z,98265.59
2022-07-29T20:01:53.861Z,98271.81
2022-07-29T20:04:23.639Z,98274.41
2022-07-29T20:06:56.263Z,98271.94
2022-07-29T20:09:28.856Z,98275.63
2022-07-29T20:11:58.604Z,98261.25
2022-07-29T20:14:28.398Z,98263.06
2022-07-29T20:16:58.328Z,98260.50
2022-07-29T20:19:28.611Z,98267.03
2022-07-29T20:21:58.320Z,98264.50
2022-07-29T20:24:30.608Z,98271.94
2022-07-29T20:27:00.673Z,98276.81
2022-07-29T20:29:30.653Z,98261.03
2022-07-29T20:32:00.442Z,98263.16
2022-07-29T20:34:30.182Z,98265.16
2022-07-29T20:37:01.860Z,98264.34
2022-07-29T20:39:34.407Z,98259.91
2022-07-29T20:42:04.152Z,98264.03
2022-07-29T20:44:34.066Z,98271.03
2022-07-29T20:47:03.811Z,98270.25
2022-07-29T20:49:33.786Z,98267.97
2022-07-29T20:52:03.482Z,98275.53
2022-07-29T20:54:35.873Z,98279.63
2022-07-29T20:57:05.599Z,98279.03
2022-07-29T20:59:35.579Z,98268.81
2022-07-29T21:02:05.427Z,98271.72
2022-07-29T21:04:37.273Z,98286.72
2022-07-29T21:07:07.234Z,98278.50
2022-07-29T21:09:39.564Z,98287.25
2022-07-29T21:12:11.205Z,98289.41
2022-07-29T21:14:51.801Z,98287.06
2022-07-29T21:17:22.457Z,98279.59
2022-07-29T21:19:52.845Z,98278.91
2022-07-29T21:22:22.804Z,98280.03
2022-07-29T21:24:55.190Z,98282.00
2022-07-29T21:27:38.286Z,98276.22
2022-07-29T21:30:10.282Z,98287.09
2022-07-29T21:32:40.331Z,98303.38
2022-07-29T21:35:22.401Z,98286.84
2022-07-29T21:38:01.786Z,98292.56
2022-07-29T21:40:34.158Z,98291.66
2022-07-29T21:43:03.893Z,98296.09
2022-07-29T21:45:33.637Z,98292.63
2022-07-29T21:48:03.501Z,98288.72
2022-07-29T21:50:33.266Z,98290.56
2022-07-29T21:53:02.996Z,98287.28
2022-07-29T21:55:36.773Z,98287.97
2022-07-29T21:58:06.748Z,98289.09
2022-07-29T22:00:36.783Z,98291.16
2022-07-29T22:03:09.042Z,98292.28
2022-07-29T22:05:39.059Z,98292.28
2022-07-29T22:08:09.183Z,98292.75
2022-07-29T22:10:41.462Z,98292.88
2022-07-29T22:13:11.393Z,98286.56
2022-07-29T22:15:45.357Z,98290.13
2022-07-29T22:18:19.518Z,98294.72
2022-07-29T22:20:50.489Z,98295.16
2022-07-29T22:23:20.254Z,98286.75
2022-07-29T22:25:52.669Z,98287.00
2022-07-29T22:28:22.395Z,98295.75
2022-07-29T22:30:52.180Z,98296.38
2022-07-29T22:33:21.876Z,98301.31
2022-07-29T22:35:52.107Z,98293.59
2022-07-29T22:38:21.776Z,98293.06
2022-07-29T22:40:54.321Z,98296.78
2022-07-29T22:43:30.358Z,98296.44
2022-07-29T22:46:00.146Z,98287.69
2022-07-29T22:48:30.446Z,98295.41
2022-07-29T22:51:00.287Z,98295.50
2022-07-29T22:53:30.071Z,98284.47
2022-07-29T22:56:02.646Z,98291.94
2022-07-29T22:58:32.397Z,98294.09
2022-07-29T23:01:02.114Z,98286.63
2022-07-29T23:03:32.043Z,98279.47
2022-07-29T23:06:01.759Z,98291.00
2022-07-29T23:08:31.545Z,98286.38
2022-07-29T23:11:03.947Z,98297.16
2022-07-29T23:13:34.214Z,98292.88
2022-07-29T23:16:03.970Z,98287.50
2022-07-29T23:18:33.723Z,98291.00
2022-07-29T23:21:03.445Z,98284.66
2022-07-29T23:23:33.271Z,98290.72
2022-07-29T23:26:05.581Z,98282.16
2022-07-29T23:28:35.326Z,98285.25
2022-07-29T23:31:05.096Z,98304.91
2022-07-29T23:33:34.869Z,98309.22
2022-07-29T23:36:04.653Z,98303.41
2022-07-29T23:38:34.357Z,98296.34
2022-07-29T23:41:09.824Z,98295.16
2022-07-29T23:43:40.048Z,98290.53
2022-07-29T23:46:09.832Z,98292.53
2022-07-29T23:48:40.129Z,98295.06
2022-07-29T23:51:10.251Z,98300.34
2022-07-29T23:53:53.020Z,98300.13
2022-07-29T23:56:26.662Z,98308.06
2022-07-29T23:58:56.406Z,98303.66
